createdAt,value
2018-02-06T00:01:27.990Z,25.20
2018-02-06T00:03:55.570Z,24.47
2018-02-06T00:06:23.175Z,24.63
2018-02-06T00:08:50.798Z,24.90
2018-02-06T00:11:18.405Z,23.90
2018-02-06T00:13:46.020Z,26.93
2018-02-06T00:16:13.613Z,24.27
2018-02-06T00:18:41.971Z,21.90
2018-02-06T00:21:09.581Z,26.23
2018-02-06T00:23:37.157Z,23.50
2018-02-06T00:26:05.160Z,22.37
2018-02-06T00:28:32.756Z,23.70
2018-02-06T00:31:00.345Z,21.33
2018-02-06T00:33:28.717Z,25.40
2018-02-06T00:35:57.047Z,26.17
2018-02-06T00:38:25.422Z,24.30
2018-02-06T00:40:53.044Z,22.20
2018-02-06T00:43:20.618Z,23.17
2018-02-06T00:45:49.008Z,26.33
2018-02-06T00:48:16.650Z,23.60
2018-02-06T00:50:44.214Z,25.07
2018-02-06T00:53:11.958Z,24.00
2018-02-06T00:55:39.576Z,22.53
2018-02-06T00:58:07.164Z,23.60
2018-02-06T01:00:34.753Z,24.20
2018-02-06T01:03:02.333Z,23.57
2018-02-06T01:05:29.966Z,22.17
2018-02-06T01:07:57.531Z,21.17
2018-02-06T01:10:25.115Z,24.57
2018-02-06T01:12:52.705Z,22.53
2018-02-06T01:15:21.042Z,26.70
2018-02-06T01:17:48.653Z,23.00
2018-02-06T01:20:16.208Z,22.27
2018-02-06T01:22:43.780Z,25.10
2018-02-06T01:25:11.412Z,23.47
2018-02-06T01:27:38.986Z,24.30
2018-02-06T01:30:06.578Z,21.87
2018-02-06T01:32:34.178Z,22.60
2018-02-06T01:35:02.248Z,24.30
2018-02-06T01:37:29.812Z,23.27
2018-02-06T01:39:57.381Z,21.73
2018-02-06T01:42:24.975Z,21.83
2018-02-06T01:44:52.588Z,21.23
2018-02-06T01:47:20.265Z,20.37
2018-02-06T01:50:00.548Z,21.77
2018-02-06T01:52:28.167Z,22.13
2018-02-06T01:54:55.749Z,20.27
2018-02-06T01:57:23.341Z,20.57
2018-02-06T01:59:50.936Z,21.93
2018-02-06T02:02:18.563Z,25.43
2018-02-06T02:04:48.378Z,23.43
2018-02-06T02:07:15.998Z,22.97
2018-02-06T02:09:43.576Z,23.80
2018-02-06T02:12:11.165Z,24.90
2018-02-06T02:14:39.508Z,22.27
2018-02-06T02:17:07.092Z,21.80
2018-02-06T02:19:35.450Z,24.93
2018-02-06T02:22:03.038Z,24.13
2018-02-06T02:24:31.418Z,22.00
2018-02-06T02:26:59.008Z,22.17
2018-02-06T02:29:27.368Z,22.50
2018-02-06T02:31:55.729Z,24.60
2018-02-06T02:34:23.313Z,24.53
2018-02-06T02:36:50.875Z,22.47
2018-02-06T02:39:18.489Z,25.57
2018-02-06T04:39:57.241Z,26.50
2018-02-06T04:42:24.815Z,26.53
2018-02-06T04:44:52.404Z,27.90
2018-02-06T04:47:20.045Z,26.27
2018-02-06T04:49:47.683Z,27.43
2018-02-06T04:52:15.277Z,26.70
2018-02-06T04:54:42.855Z,29.03
2018-02-06T04:57:10.428Z,24.53
2018-02-06T04:59:38.035Z,28.57
2018-02-06T05:02:06.379Z,25.30
2018-02-06T05:04:34.458Z,28.30
2018-02-06T05:07:02.058Z,29.93
2018-02-06T05:09:29.684Z,29.60
2018-02-06T05:11:57.271Z,30.80
2018-02-06T05:14:24.896Z,31.80
2018-02-06T05:16:52.475Z,31.73
2018-02-06T05:19:20.070Z,31.23
2018-02-06T05:21:48.425Z,31.90
2018-02-06T05:24:16.028Z,32.77
2018-02-06T05:26:44.449Z,31.67
2018-02-06T05:29:12.079Z,28.87
2018-02-06T05:31:40.422Z,30.60
2018-02-06T05:34:08.035Z,26.87
2018-02-06T05:36:35.607Z,30.30
2018-02-06T05:39:03.208Z,32.60
2018-02-06T05:41:30.817Z,32.10
2018-02-06T05:43:58.423Z,32.10
2018-02-06T05:46:26.012Z,24.87
2018-02-06T05:48:53.596Z,28.73
2018-02-06T05:51:21.188Z,30.07
2018-02-06T05:53:49.532Z,30.43
2018-02-06T05:56:17.139Z,30.23
2018-02-06T05:58:44.702Z,29.50
2018-02-06T06:01:13.064Z,29.90
2018-02-06T06:03:41.413Z,28.57
2018-02-06T06:06:08.981Z,31.13
2018-02-06T06:08:37.449Z,28.97
2018-02-06T06:11:05.054Z,29.07
2018-02-06T06:13:32.729Z,27.00
2018-02-06T06:16:01.109Z,32.53
2018-02-06T06:18:28.702Z,30.10
2018-02-06T06:20:56.300Z,28.90
2018-02-06T06:23:24.928Z,28.13
2018-02-06T06:25:52.522Z,29.27
2018-02-06T06:28:20.093Z,26.57
2018-02-06T06:30:47.694Z,29.43
2018-02-06T06:33:15.267Z,27.13
2018-02-06T06:35:42.816Z,28.10
2018-02-06T06:38:10.822Z,26.27
2018-02-06T06:40:38.422Z,31.53
2018-02-06T06:43:06.757Z,31.13
2018-02-06T06:45:34.921Z,32.07
2018-02-06T06:48:02.533Z,27.83
2018-02-06T06:50:30.105Z,28.03
2018-02-06T06:52:58.483Z,30.27
2018-02-06T06:55:26.839Z,27.90
2018-02-06T06:57:54.417Z,29.37
2018-02-06T07:00:22.052Z,28.43
2018-02-06T07:02:49.672Z,36.60
2018-02-06T07:05:18.044Z,28.83
2018-02-06T07:07:46.411Z,28.87
2018-02-06T07:10:14.004Z,30.10
2018-02-06T07:12:42.324Z,28.70
2018-02-06T07:15:09.938Z,30.70
2018-02-06T07:17:37.551Z,30.97
2018-02-06T07:20:05.197Z,28.97
2018-02-06T07:22:32.790Z,29.40
2018-02-06T07:25:00.441Z,30.43
2018-02-06T07:27:28.064Z,31.27
2018-02-06T07:29:56.449Z,32.33
2018-02-06T07:32:24.792Z,31.50
2018-02-06T07:34:52.434Z,30.63
2018-02-06T07:37:20.067Z,31.70
2018-02-06T07:39:47.694Z,30.70
2018-02-06T07:42:15.268Z,34.50
2018-02-06T07:44:42.872Z,30.90
2018-02-06T07:47:11.270Z,31.27
2018-02-06T07:49:39.605Z,29.90
2018-02-06T07:52:07.188Z,32.70
2018-02-06T07:54:35.544Z,30.50
2018-02-06T07:57:03.105Z,30.17
2018-02-06T07:59:30.746Z,30.90
2018-02-06T08:01:58.306Z,30.03
2018-02-06T08:04:25.899Z,34.10
2018-02-06T08:06:53.538Z,32.77
2018-02-06T08:09:21.127Z,34.43
2018-02-06T08:11:48.695Z,30.27
2018-02-06T08:14:16.350Z,29.53
2018-02-06T08:16:43.937Z,32.57
2018-02-06T08:19:11.550Z,28.83
2018-02-06T08:21:39.198Z,29.23
2018-02-06T08:24:07.546Z,29.03
2018-02-06T08:26:35.147Z,27.07
2018-02-06T08:29:03.542Z,31.63
2018-02-06T08:31:31.126Z,32.30
2018-02-06T08:33:58.718Z,31.27
2018-02-06T08:36:26.342Z,32.70
2018-02-06T08:38:53.974Z,31.17
2018-02-06T08:41:21.556Z,29.60
2018-02-06T08:43:49.210Z,32.03
2018-02-06T08:46:17.604Z,27.37
2018-02-06T08:48:46.007Z,32.00
2018-02-06T08:51:13.571Z,30.70
2018-02-06T08:53:41.141Z,28.67
2018-02-06T08:56:08.732Z,29.87
2018-02-06T08:58:38.021Z,30.30
2018-02-06T09:01:05.616Z,33.53
2018-02-06T09:03:33.252Z,29.80
2018-02-06T09:06:00.840Z,28.67
2018-02-06T09:08:28.425Z,30.97
2018-02-06T09:10:56.030Z,28.40
2018-02-06T09:13:23.608Z,29.40
2018-02-06T09:15:51.187Z,29.00
2018-02-06T09:18:18.860Z,28.70
2018-02-06T09:20:46.458Z,32.10
2018-02-06T09:23:14.083Z,31.30
2018-02-06T09:25:42.201Z,30.00
2018-02-06T09:28:09.832Z,30.40
2018-02-06T09:30:37.451Z,27.27
2018-02-06T09:33:05.793Z,32.10
2018-02-06T09:35:33.405Z,33.23
2018-02-06T09:38:00.981Z,27.80
2018-02-06T09:40:28.585Z,29.90
2018-02-06T09:42:56.187Z,29.00
2018-02-06T09:45:23.801Z,29.97
2018-02-06T09:47:51.393Z,27.77
2018-02-06T09:50:18.994Z,31.97
2018-02-06T09:52:47.343Z,29.40
2018-02-06T09:55:14.933Z,30.13
2018-02-06T09:57:42.534Z,30.73
2018-02-06T10:00:10.226Z,29.63
2018-02-06T10:02:37.834Z,31.77
2018-02-06T10:05:05.492Z,28.23
2018-02-06T10:07:33.081Z,30.23
2018-02-06T10:10:01.437Z,28.33
2018-02-06T10:12:29.003Z,28.97
2018-02-06T10:14:56.583Z,27.37
2018-02-06T10:17:24.801Z,26.83
2018-02-06T10:19:52.393Z,30.47
2018-02-06T10:22:19.987Z,30.20
2018-02-06T10:24:47.577Z,28.97
2018-02-06T10:27:15.937Z,32.80
2018-02-06T10:29:44.307Z,26.90
2018-02-06T10:32:11.891Z,29.47
2018-02-06T10:34:40.217Z,32.27
2018-02-06T10:37:07.841Z,30.37
2018-02-06T10:39:36.199Z,30.73
2018-02-06T10:42:04.990Z,28.63
2018-02-06T10:44:32.559Z,30.17
2018-02-06T10:47:00.160Z,35.43
2018-02-06T10:49:27.754Z,28.43
2018-02-06T10:51:56.086Z,28.47
2018-02-06T10:54:24.418Z,27.00
2018-02-06T10:56:51.969Z,28.37
2018-02-06T10:59:19.550Z,29.70
2018-02-06T11:01:47.129Z,30.33
2018-02-06T11:04:14.738Z,27.00
2018-02-06T11:06:43.063Z,32.10
2018-02-06T11:09:10.645Z,28.67
2018-02-06T11:11:38.227Z,28.53
2018-02-06T11:14:05.796Z,27.87
2018-02-06T11:16:33.387Z,29.93
2018-02-06T11:19:00.967Z,28.73
2018-02-06T11:21:28.534Z,29.47
2018-02-06T11:23:56.242Z,26.67
2018-02-06T11:26:23.802Z,29.83
2018-02-06T11:28:51.380Z,28.80
2018-02-06T11:31:19.016Z,28.63
2018-02-06T11:33:46.584Z,26.87
2018-02-06T11:36:14.174Z,27.00
2018-02-06T11:38:41.754Z,27.53
2018-02-06T11:41:09.320Z,24.67
2018-02-06T11:43:36.929Z,26.23
2018-02-06T11:46:04.503Z,29.10
2018-02-06T11:48:32.075Z,29.57
2018-02-06T11:50:59.697Z,29.37
2018-02-06T11:53:27.291Z,29.07
2018-02-06T11:55:54.863Z,26.57
2018-02-06T11:58:22.481Z,26.17
2018-02-06T12:00:50.845Z,26.43
2018-02-06T12:03:18.398Z,25.53
2018-02-06T12:05:45.972Z,29.47
2018-02-06T12:08:13.555Z,26.53
2018-02-06T12:10:41.122Z,25.30
2018-02-06T12:13:09.444Z,28.33
2018-02-06T12:15:37.020Z,29.07
2018-02-06T12:18:05.470Z,26.63
2018-02-06T12:20:33.058Z,28.07
2018-02-06T12:23:00.645Z,27.13
2018-02-06T12:25:29.227Z,24.67
2018-02-06T12:27:56.787Z,26.37
2018-02-06T12:30:24.378Z,27.03
2018-02-06T12:32:52.013Z,25.73
2018-02-06T12:35:19.588Z,25.83
2018-02-06T12:37:47.181Z,25.03
2018-02-06T12:40:14.775Z,25.20
2018-02-06T12:42:42.345Z,25.97
2018-02-06T12:45:09.929Z,24.43
2018-02-06T12:47:37.528Z,27.00
2018-02-06T12:50:06.368Z,26.90
2018-02-06T12:52:33.977Z,26.50
2018-02-06T12:55:01.581Z,26.50
2018-02-06T12:57:29.924Z,25.70
2018-02-06T12:59:58.352Z,26.83
2018-02-06T13:02:26.686Z,24.50
2018-02-06T13:04:54.316Z,25.33
2018-02-06T13:07:21.900Z,27.27
2018-02-06T13:09:51.177Z,23.80
2018-02-06T13:12:18.737Z,24.40
2018-02-06T13:14:47.101Z,23.47
2018-02-06T13:17:15.432Z,28.43
2018-02-06T13:19:43.010Z,24.13
2018-02-06T13:22:10.605Z,24.93
2018-02-06T13:24:38.681Z,24.93
2018-02-06T13:27:06.283Z,24.90
2018-02-06T13:29:33.875Z,23.00
2018-02-06T13:32:01.518Z,24.80
2018-02-06T13:34:29.113Z,22.97
2018-02-06T13:36:56.742Z,24.60
2018-02-06T13:39:24.318Z,26.27
2018-02-06T13:41:51.890Z,25.13
2018-02-06T13:44:19.518Z,23.37
2018-02-06T13:46:47.889Z,25.77
2018-02-06T13:49:15.538Z,28.13
2018-02-06T13:51:43.116Z,24.67
2018-02-06T13:54:10.712Z,26.37
2018-02-06T13:56:39.040Z,22.70
2018-02-06T13:59:07.471Z,24.77
2018-02-06T14:01:35.797Z,26.30
2018-02-06T14:04:03.399Z,22.33
2018-02-06T14:06:31.737Z,25.90
2018-02-06T14:08:59.411Z,24.10
2018-02-06T14:11:27.020Z,21.67
2018-02-06T14:13:54.622Z,26.30
2018-02-06T14:16:22.197Z,23.10
2018-02-06T14:18:49.812Z,24.03
2018-02-06T14:21:17.438Z,23.67
2018-02-06T14:23:45.081Z,23.77
2018-02-06T14:26:13.422Z,26.97
2018-02-06T14:28:41.037Z,23.47
2018-02-06T14:31:08.612Z,23.33
2018-02-06T14:33:36.217Z,23.80
2018-02-06T14:36:03.789Z,23.87
2018-02-06T14:38:31.371Z,25.17
2018-02-06T14:40:59.747Z,23.77
2018-02-06T14:43:28.879Z,24.80
2018-02-06T14:45:56.462Z,21.40
2018-02-06T14:48:24.038Z,24.13
2018-02-06T14:50:51.629Z,28.60
2018-02-06T14:53:19.271Z,24.67
2018-02-06T14:55:46.882Z,32.30
2018-02-06T14:58:14.493Z,28.23
2018-02-06T15:00:42.076Z,29.17
2018-02-06T15:03:09.674Z,28.43
2018-02-06T15:05:38.020Z,25.63
2018-02-06T15:08:06.184Z,22.60
2018-02-06T15:10:33.768Z,23.40
2018-02-06T15:13:01.348Z,24.10
2018-02-06T15:15:29.011Z,22.77
2018-02-06T15:17:56.611Z,21.47
2018-02-06T15:20:24.210Z,23.97
2018-02-06T15:22:51.821Z,23.83
2018-02-06T15:25:20.167Z,22.53
2018-02-06T15:27:47.771Z,26.00
2018-02-06T15:30:15.348Z,23.30
2018-02-06T15:32:42.963Z,26.03
2018-02-06T15:35:10.585Z,22.60
2018-02-06T15:37:38.206Z,23.37
2018-02-06T15:40:06.584Z,21.20
2018-02-06T15:42:34.196Z,24.83
2018-02-06T15:45:01.802Z,23.40
2018-02-06T15:47:29.368Z,24.87
2018-02-06T15:49:56.990Z,23.20
2018-02-06T15:52:24.586Z,20.70
2018-02-06T15:54:52.168Z,22.47
2018-02-06T15:57:19.809Z,23.33
2018-02-06T15:59:47.383Z,22.60
2018-02-06T16:02:14.946Z,23.50
2018-02-06T16:04:42.566Z,21.27
2018-02-06T16:07:10.159Z,22.63
2018-02-06T16:09:37.757Z,22.80
2018-02-06T16:12:05.393Z,23.67
2018-02-06T16:14:32.996Z,25.67
2018-02-06T16:17:00.564Z,24.00
2018-02-06T16:19:28.186Z,25.07
2018-02-06T16:21:55.795Z,24.43
2018-02-06T16:24:23.386Z,24.67
2018-02-06T16:26:51.740Z,21.93
2018-02-06T16:29:19.342Z,21.17
2018-02-06T16:31:47.707Z,21.20
2018-02-06T16:34:15.290Z,25.43
2018-02-06T16:36:43.652Z,23.33
2018-02-06T16:39:11.250Z,22.53
2018-02-06T16:41:38.863Z,21.67
2018-02-06T16:44:06.463Z,26.90
2018-02-06T16:46:34.103Z,25.50
2018-02-06T16:49:01.695Z,23.10
2018-02-06T16:51:30.091Z,22.23
2018-02-06T16:53:57.699Z,26.77
2018-02-06T16:56:25.282Z,23.57
2018-02-06T16:58:52.883Z,23.30
2018-02-06T17:01:20.514Z,22.27
2018-02-06T17:03:48.082Z,21.10
2018-02-06T17:06:16.227Z,21.33
2018-02-06T17:08:43.812Z,21.87
2018-02-06T17:11:11.392Z,22.93
2018-02-06T17:13:38.997Z,21.83
2018-02-06T17:16:06.599Z,23.80
2018-02-06T17:18:34.197Z,27.47
2018-02-06T17:21:01.793Z,24.63
2018-02-06T17:23:29.409Z,22.73
2018-02-06T17:25:57.763Z,22.23
2018-02-06T17:28:25.398Z,24.77
2018-02-06T17:30:53.776Z,23.13
2018-02-06T17:33:22.224Z,27.93
2018-02-06T17:35:49.818Z,23.80
2018-02-06T17:38:18.255Z,21.20
2018-02-06T17:40:45.825Z,22.97
2018-02-06T17:43:13.429Z,22.67
2018-02-06T17:45:41.794Z,21.23
2018-02-06T17:48:09.400Z,23.77
2018-02-06T17:50:37.745Z,22.30
2018-02-06T17:53:05.351Z,19.00
2018-02-06T17:55:32.948Z,20.13
2018-02-06T17:58:00.551Z,21.07
2018-02-06T18:00:28.166Z,20.53
2018-02-06T18:02:55.769Z,20.37
2018-02-06T18:05:23.344Z,21.33
2018-02-06T18:07:51.006Z,21.63
2018-02-06T18:10:18.575Z,27.97
2018-02-06T18:12:46.173Z,25.63
2018-02-06T18:15:13.760Z,20.33
2018-02-06T18:17:41.399Z,21.00
2018-02-06T18:20:10.475Z,20.20
2018-02-06T18:22:38.108Z,20.13
2018-02-06T18:25:05.714Z,19.37
2018-02-06T18:27:33.298Z,19.97
2018-02-06T18:30:01.641Z,39.07
2018-02-06T18:32:29.228Z,22.60
2018-02-06T18:34:56.806Z,20.00
2018-02-06T18:37:25.152Z,20.00
2018-02-06T18:39:52.826Z,23.50
2018-02-06T18:42:20.406Z,21.43
2018-02-06T18:44:48.005Z,19.93
2018-02-06T18:47:15.603Z,21.63
2018-02-06T18:49:43.203Z,18.63
2018-02-06T18:52:10.802Z,20.90
2018-02-06T18:54:38.415Z,21.87
2018-02-06T18:57:05.999Z,19.03
2018-02-06T18:59:33.596Z,17.67
2018-02-06T19:02:01.196Z,19.80
2018-02-06T19:04:28.771Z,20.63
2018-02-06T19:06:56.362Z,22.17
2018-02-06T19:09:23.958Z,20.63
2018-02-06T19:11:51.601Z,26.40
2018-02-06T19:14:19.952Z,19.70
2018-02-06T19:16:47.554Z,20.17
2018-02-06T19:19:15.174Z,19.00
2018-02-06T19:21:42.778Z,20.10
2018-02-06T19:24:11.148Z,19.53
2018-02-06T19:26:38.756Z,20.67
2018-02-06T19:29:06.328Z,19.00
2018-02-06T19:31:33.903Z,21.27
2018-02-06T19:34:01.497Z,16.43
2018-02-06T19:36:29.107Z,18.30
2018-02-06T19:38:56.715Z,20.53
2018-02-06T19:41:24.321Z,19.70
2018-02-06T19:43:52.667Z,16.93
2018-02-06T19:46:20.243Z,16.97
2018-02-06T19:48:47.867Z,21.60
2018-02-06T19:51:15.461Z,19.07
2018-02-06T19:53:43.076Z,18.53
2018-02-06T19:56:10.668Z,17.53
2018-02-06T19:58:38.738Z,20.03
2018-02-06T20:01:06.450Z,18.33
2018-02-06T20:03:34.066Z,16.07
2018-02-06T20:06:01.684Z,16.87
2018-02-06T20:08:29.307Z,17.43
2018-02-06T20:10:56.937Z,20.37
2018-02-06T20:13:25.285Z,17.97
2018-02-06T20:15:52.857Z,16.03
2018-02-06T20:18:20.479Z,19.77
2018-02-06T20:20:48.082Z,19.17
2018-02-06T20:23:17.233Z,17.43
2018-02-06T20:25:44.876Z,18.70
2018-02-06T20:28:13.242Z,18.13
2018-02-06T20:30:40.842Z,17.70
2018-02-06T20:33:08.429Z,17.13
2018-02-06T20:35:36.040Z,18.00
2018-02-06T20:38:04.405Z,18.57
2018-02-06T20:40:31.998Z,15.97
2018-02-06T20:42:59.602Z,17.00
2018-02-06T20:45:27.254Z,17.20
2018-02-06T20:47:55.483Z,17.37
2018-02-06T20:50:23.057Z,19.43
2018-02-06T20:52:50.648Z,21.23
2018-02-06T20:55:18.241Z,17.00
2018-02-06T20:57:45.852Z,18.93
2018-02-06T21:00:13.889Z,16.87
2018-02-06T21:02:42.205Z,19.97
2018-02-06T21:05:09.801Z,18.47
2018-02-06T21:07:38.376Z,17.03
2018-02-06T21:10:05.995Z,17.33
2018-02-06T21:12:33.594Z,17.90
2018-02-06T21:15:01.191Z,17.93
2018-02-06T21:17:29.521Z,18.13
2018-02-06T21:19:57.152Z,19.00
2018-02-06T21:22:24.766Z,15.03
2018-02-06T21:24:52.357Z,17.93
2018-02-06T21:27:20.734Z,17.83
2018-02-06T21:29:49.956Z,17.13
2018-02-06T21:32:18.306Z,18.00
2018-02-06T21:34:45.876Z,20.63
2018-02-06T21:37:13.479Z,16.73
2018-02-06T21:39:41.064Z,19.70
2018-02-06T21:42:08.640Z,16.20
2018-02-06T21:44:36.230Z,19.07
2018-02-06T21:47:03.847Z,16.27
2018-02-06T21:49:31.436Z,15.90
2018-02-06T21:51:59.035Z,18.40
2018-02-06T21:54:26.646Z,15.87
2018-02-06T21:56:54.229Z,14.70
2018-02-06T21:59:21.816Z,15.80
2018-02-06T22:01:49.395Z,19.50
2018-02-06T22:04:17.053Z,18.13
2018-02-06T22:06:44.650Z,16.27
2018-02-06T22:09:13.004Z,18.13
2018-02-06T22:11:40.623Z,15.67
2018-02-06T22:14:08.203Z,19.60
2018-02-06T22:16:35.875Z,16.30
2018-02-06T22:19:03.549Z,15.60
2018-02-06T22:21:31.135Z,15.90
2018-02-06T22:23:58.741Z,15.37
2018-02-06T22:26:26.336Z,16.10
2018-02-06T22:28:53.914Z,16.93
2018-02-06T22:31:21.537Z,15.77
2018-02-06T22:33:49.142Z,15.73
2018-02-06T22:36:16.741Z,25.87
2018-02-06T22:38:44.343Z,13.63
2018-02-06T22:41:12.735Z,15.73
2018-02-06T22:43:40.321Z,17.13
2018-02-06T22:46:08.806Z,15.60
2018-02-06T22:48:36.376Z,17.00
2018-02-06T22:51:04.012Z,17.60
2018-02-06T22:53:32.384Z,15.53
2018-02-06T22:56:00.016Z,16.17
2018-02-06T22:58:28.404Z,14.73
2018-02-06T23:00:56.767Z,16.50
2018-02-06T23:03:24.357Z,14.70
2018-02-06T23:05:52.720Z,17.10
2018-02-06T23:08:21.196Z,16.23
2018-02-06T23:10:48.759Z,17.33
2018-02-06T23:13:16.349Z,18.07
2018-02-06T23:15:43.940Z,17.77
2018-02-06T23:18:11.573Z,15.93
2018-02-06T23:20:39.158Z,17.20
2018-02-06T23:23:06.747Z,16.07
2018-02-06T23:25:34.310Z,17.13
2018-02-06T23:28:01.896Z,18.67
2018-02-06T23:30:29.485Z,20.00
2018-02-06T23:32:57.088Z,16.10
2018-02-06T23:35:24.696Z,16.00
2018-02-06T23:37:52.342Z,19.33
2018-02-06T23:40:19.944Z,17.17
2018-02-06T23:42:47.536Z,18.97
2018-02-06T23:45:15.906Z,17.17
2018-02-06T23:47:45.108Z,18.97
2018-02-06T23:50:12.729Z,22.27
2018-02-06T23:52:40.351Z,18.77
2018-02-06T23:55:08.686Z,18.57
2018-02-06T23:57:36.276Z,15.67
